KDKK/DKK METAR and TAF weather

Enter ICAO airport designator
Station Type Date Time Source
KDKK METAR 2022/07/03 13:53 UTC NOAA

KDKK 031353Z AUTO 29005KT 10SM CLR 21/07 A3016 RMK AO2 SLP211 T02110072 $


Station Type Date Time Source
KDKK Decoded METAR 2022/07/03 13:53 UTC NOAA

CHAUTAUQUA COUNTY/DUNKIRK, NY, United States (KDKK) 42-30N 079-17W 202M
Jul 03, 2022 - 09:53 AM EDT / 2022.07.03 1353 UTC
Wind: from the WNW (290 degrees) at 6 MPH (5 KT):0
Visibility: 10 mile(s):0
Sky conditions: clear
Temperature: 70.0 F (21.1 C)
Dew Point: 45.0 F (7.2 C)
Relative Humidity: 40%
Pressure (altimeter): 30.16 in. Hg (1021 hPa)
ob: KDKK 031353Z AUTO 29005KT 10SM CLR 21/07 A3016 RMK AO2 SLP211 T02110072
cycle: 14

Station Type Date Time Source
KDKK TAF UTC NOAA

Error!

Example: see airport list